Kansas City, MO

1:53 PM CDT on August 27, 2016 (GMT -0500)
Midtown Hospital Hill | | Change Station

Elev 984 ft 39.08 °N, 94.58 °W | Updated 37 seconds ago

Clear
Clear
92.5 °F
Feels Like 103 °F
N
0.0
Wind Variable Wind from ESE

Today
High -- | Low -- °F
--% Chance of Precip.
Yesterday
High -- | Low -- °F
Precip. -- in
Pressure 29.99 in
Visibility 10.0 miles
Clouds Clear
Heat Index 103 °F
Dew Point 74 °F
Humidity 56%
Rainfall 0.23 in
Snow Depth Not available.
6:43 AM 7:55 PM
Waning Crescent, 22% visible
METAR KMKC 271754Z 19008KT 10SM CLR 30/22 A3001 RMK AO2 SLP153 T03000222 10300 20217 58006 $
Pressure 29.99 in
Visibility 10.0 miles
Clouds Clear
Heat Index 103 °F
Dew Point 74 °F
Humidity 56%
Rainfall 0.23 in
Snow Depth Not available.
6:43 AM 7:55 PM
Waning Crescent, 22% visible
METAR KMKC 271754Z 19008KT 10SM CLR 30/22 A3001 RMK AO2 SLP153 T03000222 10300 20217 58006 $

10-Day Weather Forecast

Almanac

Astronomy

Aug. 27, 2016 Rise Set
Actual Time
Civil Twilight
Nautical Twilight
Astronomical Twilight
Moon
Length of Visible Light
Length of Day
Tomorrow will be .
, % of the Moon is Illuminated

Today's Extremes

State Highs State Lows

Community

WunderPhotos

Upload Photos

1,935,399 photos uploaded!

WunderBlog® & News

Nearby

Air Quality

  Air Quality AQ Index Pollutant
Not available.

Snow Depth

Station Depth Elevation

Earthquake Activity

City Distance Mag. Time & Date
Minimum magnitude displayed is 2.5.

Coastal Water Temperatures

Place Temperature

Stations

Nearby Weather Stations

Station Location Temp. Windchill Dew Point Humidity Wind Precip. Elev Updated Type
                   

Watches & Warnings

There are currently no watches in effect.